If you wish to contribute or participate in the discussions about articles you are invited to join SKYbrary as a registered user

 Actions

Saga Airport

From SKYbrary Wiki

RJFS
Airport
ICAO: RJFS – IATA: HSG
Summary
Name Saga Airport
Region Asia and Pacific
Territory Japan JP.gif
Location Kawasoe, Saga Prefecture
Serving Saga
Elevation 1.829 m
6 ft1.829 m
Coordinates 33° 9' 12.03" N, 130° 18' 11.09" E
Runways
Designator Length Width Surface ROPS
11/29 2000 m6,561.68 ft
45 m147.638 ft
ASP yes/yes


METAR
Observation RJFS 181000Z 23009KT 9999 FEW050 SCT/// 18/14 Q1013
Station Saga Airport
Date/Time 18 April 2019 10:00:00
Wind direction 230°
Wind speed 09 kts
Lowest cloud amount few clouds
Temperature 18°C
Dew point 14°C
Humidity 77%
QNH 1013 hPa
Weather condition n/a

Saga Airport is an airport in the Kawasoe area of Saga, Saga Prefecture, Japan. It also uses the unofficial name Kyushu Saga International Airport.

Climatology

Humid Sub-tropical climate (Köppen climate classification Cfa)

Maps

Terrain

Loading map...

Airport Layout

Loading map...


Accidents & Serious Incidents at or in vicinity of RJFS

None on SKYbrary